createdAt,value
2023-05-23T05:03:45.593Z,72.63
2023-05-23T05:08:47.532Z,72.20
2023-05-23T05:13:49.666Z,72.86
2023-05-23T05:18:52.439Z,73.53
2023-05-23T05:23:55.327Z,73.74
2023-05-23T05:28:57.081Z,74.39
2023-05-23T05:33:59.410Z,74.81
2023-05-23T05:39:02.068Z,75.03
2023-05-23T05:44:03.653Z,75.10
2023-05-23T05:49:05.355Z,75.32
2023-05-23T05:54:07.191Z,75.46
2023-05-23T05:59:08.877Z,75.49
2023-05-23T06:04:12.637Z,75.69
2023-05-23T06:09:16.211Z,75.71
2023-05-23T06:14:18.030Z,76.09
2023-05-23T06:19:21.809Z,76.13
2023-05-23T06:24:23.427Z,76.05
2023-05-23T06:29:24.997Z,75.67
2023-05-23T06:34:26.525Z,75.47
2023-05-23T06:39:28.016Z,75.48
2023-05-23T06:44:29.964Z,75.16
2023-05-23T06:49:31.533Z,75.17
2023-05-23T06:54:33.329Z,74.82
2023-05-23T06:59:35.441Z,74.55
2023-05-23T07:04:38.478Z,74.12
2023-05-23T07:09:46.493Z,73.70
2023-05-23T07:14:52.694Z,73.31
2023-05-23T07:19:56.197Z,73.41
2023-05-23T07:24:58.777Z,73.05
2023-05-23T07:30:07.496Z,72.86
2023-05-23T07:35:11.029Z,73.04
2023-05-23T07:40:12.641Z,72.64
2023-05-23T07:45:14.801Z,72.50
2023-05-23T07:50:18.490Z,72.15
2023-05-23T07:55:20.139Z,72.25
2023-05-23T08:00:22.231Z,71.76
2023-05-23T08:05:30.127Z,71.53
2023-05-23T08:10:32.747Z,71.38
2023-05-23T08:15:41.526Z,71.61
2023-05-23T08:20:49.934Z,71.80
2023-05-23T08:25:52.933Z,72.00
2023-05-23T08:30:57.021Z,71.56
2023-05-23T08:35:59.584Z,71.72
2023-05-23T08:41:02.081Z,71.79
2023-05-23T08:46:06.087Z,72.29
2023-05-23T08:51:14.247Z,72.36
2023-05-23T08:56:16.498Z,72.48
2023-05-23T09:01:23.543Z,72.94
2023-05-23T09:06:28.345Z,72.89
2023-05-23T09:11:36.130Z,72.54
2023-05-23T09:16:40.121Z,72.38
2023-05-23T09:21:47.289Z,72.29
2023-05-23T09:27:09.057Z,72.81
2023-05-23T09:32:16.081Z,73.67
2023-05-23T09:37:19.357Z,74.25
2023-05-23T09:42:25.014Z,75.23
2023-05-23T09:47:27.226Z,75.24
2023-05-23T09:52:35.957Z,74.86
2023-05-23T09:57:41.399Z,74.67
2023-05-23T10:02:55.120Z,73.97
2023-05-23T10:08:00.764Z,73.04
2023-05-23T10:13:05.312Z,70.72
2023-05-23T10:18:14.345Z,69.60
2023-05-23T10:23:16.728Z,69.70
2023-05-23T10:28:18.932Z,69.47
2023-05-23T10:33:22.512Z,69.40
2023-05-23T10:38:36.557Z,69.08
2023-05-23T10:43:57.136Z,69.13
2023-05-23T10:48:59.080Z,69.43
2023-05-23T10:54:00.810Z,69.84
2023-05-23T10:59:06.252Z,69.84
2023-05-23T11:04:07.891Z,69.22
2023-05-23T11:09:21.131Z,68.41
2023-05-23T11:14:38.206Z,68.11
2023-05-23T11:19:40.136Z,67.95
2023-05-23T11:24:52.220Z,67.70
2023-05-23T11:30:04.313Z,67.61
2023-05-23T11:35:08.357Z,67.71
2023-05-23T11:40:30.030Z,67.23
2023-05-23T11:45:32.964Z,67.27
2023-05-23T11:50:43.228Z,66.85
2023-05-23T11:56:00.242Z,66.55
2023-05-23T12:01:03.334Z,65.82
2023-05-23T12:06:05.134Z,65.37
2023-05-23T12:11:07.113Z,65.00
2023-05-23T12:16:08.795Z,65.05
2023-05-23T12:21:10.494Z,64.36
2023-05-23T12:26:12.172Z,64.67
2023-05-23T12:31:22.088Z,63.95
2023-05-23T12:36:29.638Z,64.27
2023-05-23T12:41:33.250Z,64.39
2023-05-23T12:46:34.756Z,64.63
2023-05-23T12:51:36.595Z,65.29
2023-05-23T12:56:38.157Z,65.37
2023-05-23T13:01:39.787Z,65.91
2023-05-23T13:06:41.281Z,66.24
2023-05-23T13:11:42.998Z,66.76
2023-05-23T13:16:45.524Z,67.41
2023-05-23T13:21:49.380Z,68.86
2023-05-23T13:26:51.346Z,70.49
2023-05-23T13:31:53.696Z,71.60
2023-05-23T13:36:55.626Z,72.41
2023-05-23T13:41:57.112Z,73.84
2023-05-23T13:47:12.638Z,75.26
2023-05-23T13:52:14.918Z,76.23
2023-05-23T13:57:16.853Z,76.82
2023-05-23T14:02:18.319Z,77.35
2023-05-23T14:07:20.486Z,77.36
2023-05-23T14:12:21.926Z,77.06
2023-05-23T14:17:23.871Z,77.37
2023-05-23T14:22:25.441Z,77.68
2023-05-23T14:27:27.005Z,77.57
2023-05-23T14:32:28.501Z,78.85
2023-05-23T14:37:29.958Z,78.85
2023-05-23T14:42:31.471Z,79.42
2023-05-23T14:47:33.082Z,79.90
2023-05-23T14:52:34.594Z,79.76
2023-05-23T14:57:36.441Z,79.82
2023-05-23T15:02:37.945Z,79.93
2023-05-23T15:07:40.315Z,80.15
2023-05-23T15:12:41.757Z,79.83
2023-05-23T15:17:43.236Z,79.86
2023-05-23T15:22:44.747Z,79.76
2023-05-23T15:27:46.193Z,79.53
2023-05-23T15:32:48.127Z,79.43
2023-05-23T15:37:49.682Z,79.88
2023-05-23T15:42:51.175Z,79.42
2023-05-23T15:47:52.740Z,79.57
2023-05-23T15:52:54.249Z,79.25
2023-05-23T15:57:55.883Z,79.22
2023-05-23T16:02:57.356Z,79.51
2023-05-23T16:07:58.887Z,80.08
2023-05-23T16:13:00.379Z,80.72
2023-05-23T16:18:03.173Z,80.88
2023-05-23T16:23:04.877Z,81.43
2023-05-23T16:28:06.400Z,81.84
2023-05-23T16:33:07.982Z,81.80
2023-05-23T16:38:09.689Z,81.79
2023-05-23T16:43:12.506Z,82.57
2023-05-23T16:48:14.036Z,83.00
2023-05-23T16:53:15.625Z,83.76
2023-05-23T16:58:18.713Z,84.22
2023-05-23T17:03:21.761Z,83.86
2023-05-23T17:08:23.291Z,84.83
2023-05-23T17:13:24.845Z,85.21
2023-05-23T17:18:26.332Z,85.27
2023-05-23T17:23:27.904Z,85.56
2023-05-23T17:28:29.434Z,85.69
2023-05-23T17:33:30.908Z,85.49
2023-05-23T17:38:32.594Z,85.67
2023-05-23T17:43:34.091Z,85.75
2023-05-23T17:48:47.061Z,86.29
2023-05-23T17:53:53.397Z,86.33
2023-05-23T17:58:54.887Z,86.13
2023-05-23T18:03:56.605Z,86.88
2023-05-23T18:08:58.115Z,87.21
2023-05-23T18:13:59.567Z,87.59
2023-05-23T18:19:01.213Z,87.84
2023-05-23T18:24:03.941Z,87.93
2023-05-23T18:29:05.320Z,88.41
2023-05-23T18:34:06.940Z,88.99
2023-05-23T18:39:09.117Z,88.79
2023-05-23T18:44:10.949Z,89.36
2023-05-23T18:49:12.484Z,89.41
2023-05-23T18:54:13.968Z,90.10
2023-05-23T18:59:16.802Z,89.77
2023-05-23T19:04:18.460Z,90.31
2023-05-23T19:09:20.234Z,90.79
2023-05-23T19:14:21.808Z,90.98
2023-05-23T19:19:23.284Z,91.43
2023-05-23T19:24:24.828Z,91.20
2023-05-23T19:29:26.441Z,91.75
2023-05-23T19:34:28.282Z,91.64
2023-05-23T19:39:29.734Z,91.50
2023-05-23T19:44:31.397Z,91.07
2023-05-23T19:49:32.917Z,91.12
2023-05-23T19:54:34.563Z,90.98
2023-05-23T19:59:36.044Z,90.97
2023-05-23T20:04:37.495Z,91.27
2023-05-23T20:09:38.940Z,91.54
2023-05-23T20:14:40.889Z,91.08
2023-05-23T20:19:42.598Z,90.98
2023-05-23T20:24:44.066Z,90.75
2023-05-23T20:29:45.669Z,91.06
2023-05-23T20:34:47.150Z,90.61
2023-05-23T20:39:49.206Z,90.51
2023-05-23T20:44:50.653Z,90.57
2023-05-23T20:49:52.111Z,90.15
2023-05-23T20:54:54.421Z,90.59
2023-05-23T20:59:55.994Z,90.08
2023-05-23T21:05:00.499Z,90.12
2023-05-23T21:15:53.983Z,90.13
2023-05-23T21:20:55.826Z,90.08
2023-05-23T21:25:57.376Z,90.14
2023-05-23T21:30:58.832Z,89.84
2023-05-23T21:36:01.076Z,90.18
2023-05-23T21:41:02.673Z,89.97
2023-05-23T21:46:04.180Z,90.24
2023-05-23T21:51:05.766Z,90.31
2023-05-23T21:56:07.370Z,90.23
